sensor_id;sensor_type;location;lat;lon;timestamp;P1;durP1;ratioP1;P2;durP2;ratioP2
60612;SDS011;46443;59.792;17.626;2023-08-06T00:00:09;6.27;;;2.30;;
60612;SDS011;46443;59.792;17.626;2023-08-06T00:02:36;4.37;;;2.53;;
60612;SDS011;46443;59.792;17.626;2023-08-06T00:05:02;4.60;;;2.50;;
60612;SDS011;46443;59.792;17.626;2023-08-06T00:07:29;4.30;;;2.27;;
60612;SDS011;46443;59.792;17.626;2023-08-06T00:09:55;3.57;;;2.27;;
60612;SDS011;46443;59.792;17.626;2023-08-06T00:12:21;5.10;;;2.60;;
60612;SDS011;46443;59.792;17.626;2023-08-06T00:14:51;3.90;;;2.27;;
60612;SDS011;46443;59.792;17.626;2023-08-06T00:17:17;3.72;;;2.25;;
60612;SDS011;46443;59.792;17.626;2023-08-06T00:19:43;6.30;;;2.40;;
60612;SDS011;46443;59.792;17.626;2023-08-06T00:22:09;4.13;;;2.10;;
60612;SDS011;46443;59.792;17.626;2023-08-06T00:24:35;4.30;;;2.23;;
60612;SDS011;46443;59.792;17.626;2023-08-06T00:27:01;3.87;;;2.40;;
60612;SDS011;46443;59.792;17.626;2023-08-06T00:29:27;4.20;;;2.30;;
60612;SDS011;46443;59.792;17.626;2023-08-06T00:31:53;5.57;;;2.60;;
60612;SDS011;46443;59.792;17.626;2023-08-06T00:34:19;4.77;;;2.53;;
60612;SDS011;46443;59.792;17.626;2023-08-06T00:36:46;4.97;;;2.50;;
60612;SDS011;46443;59.792;17.626;2023-08-06T00:39:12;4.50;;;2.47;;
60612;SDS011;46443;59.792;17.626;2023-08-06T00:41:38;4.30;;;2.50;;
60612;SDS011;46443;59.792;17.626;2023-08-06T00:44:04;4.10;;;2.50;;
60612;SDS011;46443;59.792;17.626;2023-08-06T00:46:30;3.40;;;2.23;;
60612;SDS011;46443;59.792;17.626;2023-08-06T00:48:57;4.47;;;2.50;;
60612;SDS011;46443;59.792;17.626;2023-08-06T00:51:23;5.23;;;2.50;;
60612;SDS011;46443;59.792;17.626;2023-08-06T00:53:50;3.43;;;2.10;;
60612;SDS011;46443;59.792;17.626;2023-08-06T00:56:16;3.10;;;2.23;;
60612;SDS011;46443;59.792;17.626;2023-08-06T00:58:42;3.70;;;2.40;;
60612;SDS011;46443;59.792;17.626;2023-08-06T01:01:09;4.53;;;2.30;;
60612;SDS011;46443;59.792;17.626;2023-08-06T01:03:35;5.50;;;2.47;;
60612;SDS011;46443;59.792;17.626;2023-08-06T01:06:01;3.87;;;2.40;;
60612;SDS011;46443;59.792;17.626;2023-08-06T01:08:32;4.73;;;2.40;;
60612;SDS011;46443;59.792;17.626;2023-08-06T01:13:45;4.40;;;2.13;;
60612;SDS011;46443;59.792;17.626;2023-08-06T01:16:15;4.23;;;2.30;;
60612;SDS011;46443;59.792;17.626;2023-08-06T01:18:42;4.45;;;2.47;;
60612;SDS011;46443;59.792;17.626;2023-08-06T01:21:11;3.95;;;2.40;;
60612;SDS011;46443;59.792;17.626;2023-08-06T01:23:37;3.63;;;2.30;;
60612;SDS011;46443;59.792;17.626;2023-08-06T01:26:22;5.50;;;2.40;;
60612;SDS011;46443;59.792;17.626;2023-08-06T01:31:18;4.83;;;2.47;;
60612;SDS011;46443;59.792;17.626;2023-08-06T01:33:46;4.20;;;2.20;;
60612;SDS011;46443;59.792;17.626;2023-08-06T01:36:15;4.87;;;2.37;;
60612;SDS011;46443;59.792;17.626;2023-08-06T01:38:42;5.18;;;2.40;;
60612;SDS011;46443;59.792;17.626;2023-08-06T01:41:08;3.37;;;2.33;;
60612;SDS011;46443;59.792;17.626;2023-08-06T01:43:34;4.30;;;2.47;;
60612;SDS011;46443;59.792;17.626;2023-08-06T01:46:00;5.83;;;2.40;;
60612;SDS011;46443;59.792;17.626;2023-08-06T01:48:27;3.90;;;2.70;;
60612;SDS011;46443;59.792;17.626;2023-08-06T01:50:53;3.90;;;2.30;;
60612;SDS011;46443;59.792;17.626;2023-08-06T01:53:19;4.03;;;2.40;;
60612;SDS011;46443;59.792;17.626;2023-08-06T01:55:49;4.63;;;2.70;;
60612;SDS011;46443;59.792;17.626;2023-08-06T01:58:15;3.72;;;2.20;;
60612;SDS011;46443;59.792;17.626;2023-08-06T02:00:41;4.03;;;2.60;;
60612;SDS011;46443;59.792;17.626;2023-08-06T02:03:07;4.73;;;2.37;;
60612;SDS011;46443;59.792;17.626;2023-08-06T02:05:33;3.90;;;2.60;;
60612;SDS011;46443;59.792;17.626;2023-08-06T02:07:59;4.83;;;2.50;;
60612;SDS011;46443;59.792;17.626;2023-08-06T02:10:25;4.40;;;2.60;;
60612;SDS011;46443;59.792;17.626;2023-08-06T02:12:51;3.90;;;2.40;;
60612;SDS011;46443;59.792;17.626;2023-08-06T02:15:17;5.10;;;2.50;;
60612;SDS011;46443;59.792;17.626;2023-08-06T02:17:43;4.93;;;2.70;;
60612;SDS011;46443;59.792;17.626;2023-08-06T02:20:09;4.67;;;2.43;;
60612;SDS011;46443;59.792;17.626;2023-08-06T02:22:35;3.73;;;2.50;;
60612;SDS011;46443;59.792;17.626;2023-08-06T02:25:02;5.60;;;2.47;;
60612;SDS011;46443;59.792;17.626;2023-08-06T02:27:28;4.50;;;2.50;;
60612;SDS011;46443;59.792;17.626;2023-08-06T02:29:54;6.57;;;2.67;;
60612;SDS011;46443;59.792;17.626;2023-08-06T02:32:20;8.63;;;3.17;;
60612;SDS011;46443;59.792;17.626;2023-08-06T02:34:46;4.10;;;2.50;;
60612;SDS011;46443;59.792;17.626;2023-08-06T02:37:12;3.43;;;2.40;;
60612;SDS011;46443;59.792;17.626;2023-08-06T02:39:38;3.97;;;2.47;;
60612;SDS011;46443;59.792;17.626;2023-08-06T02:42:07;4.93;;;2.60;;
60612;SDS011;46443;59.792;17.626;2023-08-06T02:44:34;4.60;;;2.60;;
60612;SDS011;46443;59.792;17.626;2023-08-06T02:47:00;6.37;;;2.77;;
60612;SDS011;46443;59.792;17.626;2023-08-06T02:49:26;4.80;;;2.63;;
60612;SDS011;46443;59.792;17.626;2023-08-06T02:51:52;4.80;;;2.57;;
60612;SDS011;46443;59.792;17.626;2023-08-06T02:54:19;5.67;;;2.50;;
60612;SDS011;46443;59.792;17.626;2023-08-06T02:56:45;5.20;;;2.50;;
60612;SDS011;46443;59.792;17.626;2023-08-06T02:59:14;5.57;;;3.03;;
60612;SDS011;46443;59.792;17.626;2023-08-06T03:01:40;4.73;;;2.73;;
60612;SDS011;46443;59.792;17.626;2023-08-06T03:04:06;5.47;;;2.53;;
60612;SDS011;46443;59.792;17.626;2023-08-06T03:06:32;5.57;;;2.83;;
60612;SDS011;46443;59.792;17.626;2023-08-06T03:08:58;4.43;;;2.63;;
60612;SDS011;46443;59.792;17.626;2023-08-06T03:11:24;4.73;;;3.07;;
60612;SDS011;46443;59.792;17.626;2023-08-06T03:13:50;5.80;;;2.90;;
60612;SDS011;46443;59.792;17.626;2023-08-06T03:16:16;5.43;;;2.90;;
60612;SDS011;46443;59.792;17.626;2023-08-06T03:18:42;4.10;;;2.60;;
60612;SDS011;46443;59.792;17.626;2023-08-06T03:21:08;6.20;;;3.10;;
60612;SDS011;46443;59.792;17.626;2023-08-06T03:23:34;5.03;;;2.90;;
60612;SDS011;46443;59.792;17.626;2023-08-06T03:26:04;5.87;;;2.70;;
60612;SDS011;46443;59.792;17.626;2023-08-06T03:28:30;4.90;;;2.80;;
60612;SDS011;46443;59.792;17.626;2023-08-06T03:31:00;4.73;;;2.63;;
60612;SDS011;46443;59.792;17.626;2023-08-06T03:33:26;4.85;;;2.40;;
60612;SDS011;46443;59.792;17.626;2023-08-06T03:35:52;6.13;;;2.93;;
60612;SDS011;46443;59.792;17.626;2023-08-06T03:38:18;6.10;;;2.83;;
60612;SDS011;46443;59.792;17.626;2023-08-06T03:40:45;4.43;;;2.67;;
60612;SDS011;46443;59.792;17.626;2023-08-06T03:43:12;5.50;;;2.90;;
60612;SDS011;46443;59.792;17.626;2023-08-06T03:45:38;5.23;;;2.93;;
60612;SDS011;46443;59.792;17.626;2023-08-06T03:48:04;5.93;;;2.50;;
60612;SDS011;46443;59.792;17.626;2023-08-06T03:50:30;7.00;;;3.03;;
60612;SDS011;46443;59.792;17.626;2023-08-06T03:52:56;5.37;;;3.00;;
60612;SDS011;46443;59.792;17.626;2023-08-06T03:55:22;5.07;;;2.80;;
60612;SDS011;46443;59.792;17.626;2023-08-06T03:57:48;5.70;;;3.10;;
60612;SDS011;46443;59.792;17.626;2023-08-06T04:00:15;4.73;;;3.00;;
60612;SDS011;46443;59.792;17.626;2023-08-06T04:02:42;6.20;;;2.60;;
60612;SDS011;46443;59.792;17.626;2023-08-06T04:05:08;4.80;;;2.83;;
60612;SDS011;46443;59.792;17.626;2023-08-06T04:07:34;6.50;;;3.20;;
60612;SDS011;46443;59.792;17.626;2023-08-06T04:10:01;5.70;;;3.20;;
60612;SDS011;46443;59.792;17.626;2023-08-06T04:12:28;4.93;;;2.83;;
60612;SDS011;46443;59.792;17.626;2023-08-06T04:14:54;6.33;;;2.77;;
60612;SDS011;46443;59.792;17.626;2023-08-06T04:17:20;5.73;;;2.80;;
60612;SDS011;46443;59.792;17.626;2023-08-06T04:19:48;4.47;;;2.60;;
60612;SDS011;46443;59.792;17.626;2023-08-06T04:22:15;4.03;;;2.60;;
60612;SDS011;46443;59.792;17.626;2023-08-06T04:24:41;5.23;;;2.93;;
60612;SDS011;46443;59.792;17.626;2023-08-06T04:27:08;3.87;;;2.70;;
60612;SDS011;46443;59.792;17.626;2023-08-06T04:29:34;4.47;;;2.60;;
60612;SDS011;46443;59.792;17.626;2023-08-06T04:32:00;4.67;;;2.60;;
60612;SDS011;46443;59.792;17.626;2023-08-06T04:34:26;6.10;;;3.20;;
60612;SDS011;46443;59.792;17.626;2023-08-06T04:36:52;4.83;;;2.90;;
60612;SDS011;46443;59.792;17.626;2023-08-06T04:39:19;5.20;;;2.90;;
60612;SDS011;46443;59.792;17.626;2023-08-06T04:41:45;5.50;;;2.60;;
60612;SDS011;46443;59.792;17.626;2023-08-06T04:44:11;6.00;;;2.57;;
60612;SDS011;46443;59.792;17.626;2023-08-06T04:46:37;6.03;;;2.70;;
60612;SDS011;46443;59.792;17.626;2023-08-06T04:49:03;4.50;;;2.73;;
60612;SDS011;46443;59.792;17.626;2023-08-06T04:51:29;6.20;;;2.77;;
60612;SDS011;46443;59.792;17.626;2023-08-06T04:53:56;5.83;;;3.00;;
60612;SDS011;46443;59.792;17.626;2023-08-06T04:56:22;5.47;;;2.83;;
60612;SDS011;46443;59.792;17.626;2023-08-06T04:58:48;6.83;;;3.07;;
60612;SDS011;46443;59.792;17.626;2023-08-06T05:01:14;4.50;;;2.60;;
60612;SDS011;46443;59.792;17.626;2023-08-06T05:03:40;5.50;;;2.63;;
60612;SDS011;46443;59.792;17.626;2023-08-06T05:06:06;5.77;;;2.90;;
60612;SDS011;46443;59.792;17.626;2023-08-06T05:08:32;6.00;;;2.83;;
60612;SDS011;46443;59.792;17.626;2023-08-06T05:10:58;4.93;;;3.10;;
60612;SDS011;46443;59.792;17.626;2023-08-06T05:13:25;4.77;;;2.80;;
60612;SDS011;46443;59.792;17.626;2023-08-06T05:15:53;5.80;;;3.20;;
60612;SDS011;46443;59.792;17.626;2023-08-06T05:18:19;6.57;;;3.60;;
60612;SDS011;46443;59.792;17.626;2023-08-06T05:20:45;5.20;;;2.80;;
60612;SDS011;46443;59.792;17.626;2023-08-06T05:23:11;6.20;;;2.80;;
60612;SDS011;46443;59.792;17.626;2023-08-06T05:25:37;7.27;;;3.17;;
60612;SDS011;46443;59.792;17.626;2023-08-06T05:28:04;4.67;;;3.00;;
60612;SDS011;46443;59.792;17.626;2023-08-06T05:30:30;7.70;;;3.50;;
60612;SDS011;46443;59.792;17.626;2023-08-06T05:32:56;4.53;;;3.00;;
60612;SDS011;46443;59.792;17.626;2023-08-06T05:35:22;7.50;;;3.17;;
60612;SDS011;46443;59.792;17.626;2023-08-06T05:37:50;6.07;;;3.63;;
60612;SDS011;46443;59.792;17.626;2023-08-06T05:40:16;6.73;;;3.30;;
60612;SDS011;46443;59.792;17.626;2023-08-06T05:42:42;8.70;;;3.30;;
60612;SDS011;46443;59.792;17.626;2023-08-06T05:45:09;6.57;;;3.40;;
60612;SDS011;46443;59.792;17.626;2023-08-06T05:47:35;5.77;;;3.20;;
60612;SDS011;46443;59.792;17.626;2023-08-06T05:50:01;7.87;;;3.13;;
60612;SDS011;46443;59.792;17.626;2023-08-06T05:52:27;8.57;;;3.40;;
60612;SDS011;46443;59.792;17.626;2023-08-06T05:54:53;4.93;;;2.90;;
60612;SDS011;46443;59.792;17.626;2023-08-06T05:57:20;9.47;;;3.60;;
60612;SDS011;46443;59.792;17.626;2023-08-06T05:59:46;5.93;;;3.53;;
60612;SDS011;46443;59.792;17.626;2023-08-06T06:02:12;5.83;;;3.60;;
60612;SDS011;46443;59.792;17.626;2023-08-06T06:04:38;7.73;;;3.70;;
60612;SDS011;46443;59.792;17.626;2023-08-06T06:07:04;8.07;;;3.87;;
60612;SDS011;46443;59.792;17.626;2023-08-06T06:09:30;8.63;;;3.13;;
60612;SDS011;46443;59.792;17.626;2023-08-06T06:11:56;6.00;;;3.67;;
60612;SDS011;46443;59.792;17.626;2023-08-06T06:14:22;7.80;;;3.57;;
60612;SDS011;46443;59.792;17.626;2023-08-06T06:16:48;7.77;;;3.60;;
60612;SDS011;46443;59.792;17.626;2023-08-06T06:19:14;9.83;;;3.70;;
60612;SDS011;46443;59.792;17.626;2023-08-06T06:21:41;7.87;;;3.13;;
60612;SDS011;46443;59.792;17.626;2023-08-06T06:24:07;6.10;;;3.43;;
60612;SDS011;46443;59.792;17.626;2023-08-06T06:26:33;7.10;;;3.60;;
60612;SDS011;46443;59.792;17.626;2023-08-06T06:28:59;6.83;;;3.60;;
60612;SDS011;46443;59.792;17.626;2023-08-06T06:31:25;7.80;;;3.63;;
60612;SDS011;46443;59.792;17.626;2023-08-06T06:33:51;7.73;;;3.40;;
60612;SDS011;46443;59.792;17.626;2023-08-06T06:36:19;8.17;;;3.97;;
60612;SDS011;46443;59.792;17.626;2023-08-06T06:38:45;7.00;;;3.70;;
60612;SDS011;46443;59.792;17.626;2023-08-06T06:41:11;5.83;;;3.60;;
60612;SDS011;46443;59.792;17.626;2023-08-06T06:43:37;6.00;;;3.70;;
60612;SDS011;46443;59.792;17.626;2023-08-06T06:46:05;6.00;;;3.30;;
60612;SDS011;46443;59.792;17.626;2023-08-06T06:48:32;6.77;;;3.67;;
60612;SDS011;46443;59.792;17.626;2023-08-06T06:50:58;6.00;;;3.47;;
60612;SDS011;46443;59.792;17.626;2023-08-06T06:53:24;8.53;;;3.60;;
60612;SDS011;46443;59.792;17.626;2023-08-06T06:56:01;6.25;;;3.42;;
60612;SDS011;46443;59.792;17.626;2023-08-06T06:58:27;6.30;;;4.17;;
60612;SDS011;46443;59.792;17.626;2023-08-06T07:00:53;7.60;;;3.90;;
60612;SDS011;46443;59.792;17.626;2023-08-06T07:03:19;8.10;;;3.67;;
60612;SDS011;46443;59.792;17.626;2023-08-06T07:05:46;6.23;;;3.80;;
60612;SDS011;46443;59.792;17.626;2023-08-06T07:08:12;7.40;;;4.13;;
60612;SDS011;46443;59.792;17.626;2023-08-06T07:10:40;5.30;;;3.37;;
60612;SDS011;46443;59.792;17.626;2023-08-06T07:13:06;6.63;;;3.90;;
60612;SDS011;46443;59.792;17.626;2023-08-06T07:15:32;5.90;;;3.57;;
60612;SDS011;46443;59.792;17.626;2023-08-06T07:17:58;7.53;;;3.90;;
60612;SDS011;46443;59.792;17.626;2023-08-06T07:20:24;5.82;;;3.50;;
60612;SDS011;46443;59.792;17.626;2023-08-06T07:22:51;7.13;;;3.65;;
60612;SDS011;46443;59.792;17.626;2023-08-06T07:25:17;7.60;;;4.35;;
60612;SDS011;46443;59.792;17.626;2023-08-06T07:27:43;8.30;;;3.47;;
60612;SDS011;46443;59.792;17.626;2023-08-06T07:30:09;7.65;;;4.10;;
60612;SDS011;46443;59.792;17.626;2023-08-06T07:32:36;6.65;;;3.72;;
60612;SDS011;46443;59.792;17.626;2023-08-06T07:35:02;6.95;;;3.50;;
60612;SDS011;46443;59.792;17.626;2023-08-06T07:37:28;6.40;;;3.42;;
60612;SDS011;46443;59.792;17.626;2023-08-06T07:39:55;7.22;;;3.72;;
60612;SDS011;46443;59.792;17.626;2023-08-06T07:42:21;5.95;;;3.50;;
60612;SDS011;46443;59.792;17.626;2023-08-06T07:44:54;6.45;;;3.60;;
60612;SDS011;46443;59.792;17.626;2023-08-06T07:47:21;6.05;;;3.70;;
60612;SDS011;46443;59.792;17.626;2023-08-06T07:49:47;7.93;;;3.58;;
60612;SDS011;46443;59.792;17.626;2023-08-06T07:52:13;5.75;;;3.50;;
60612;SDS011;46443;59.792;17.626;2023-08-06T07:54:39;5.47;;;3.20;;
60612;SDS011;46443;59.792;17.626;2023-08-06T07:57:05;5.55;;;3.30;;
60612;SDS011;46443;59.792;17.626;2023-08-06T07:59:32;6.20;;;3.45;;
60612;SDS011;46443;59.792;17.626;2023-08-06T08:01:58;5.50;;;3.53;;
60612;SDS011;46443;59.792;17.626;2023-08-06T08:04:24;6.22;;;3.50;;
60612;SDS011;46443;59.792;17.626;2023-08-06T08:06:50;6.55;;;3.10;;
60612;SDS011;46443;59.792;17.626;2023-08-06T08:09:16;6.32;;;3.20;;
60612;SDS011;46443;59.792;17.626;2023-08-06T08:11:43;4.28;;;3.15;;
60612;SDS011;46443;59.792;17.626;2023-08-06T08:14:09;6.70;;;3.53;;
60612;SDS011;46443;59.792;17.626;2023-08-06T08:16:35;7.32;;;3.38;;
60612;SDS011;46443;59.792;17.626;2023-08-06T08:19:01;4.57;;;3.08;;
60612;SDS011;46443;59.792;17.626;2023-08-06T08:21:29;5.78;;;3.03;;
60612;SDS011;46443;59.792;17.626;2023-08-06T08:23:55;5.72;;;2.97;;
60612;SDS011;46443;59.792;17.626;2023-08-06T08:26:21;5.18;;;2.83;;
60612;SDS011;46443;59.792;17.626;2023-08-06T08:28:47;4.00;;;2.85;;
60612;SDS011;46443;59.792;17.626;2023-08-06T08:31:13;6.40;;;3.40;;
60612;SDS011;46443;59.792;17.626;2023-08-06T08:33:39;5.05;;;3.17;;
60612;SDS011;46443;59.792;17.626;2023-08-06T08:36:05;4.82;;;2.85;;
60612;SDS011;46443;59.792;17.626;2023-08-06T08:38:31;4.70;;;2.72;;
60612;SDS011;46443;59.792;17.626;2023-08-06T08:40:57;5.47;;;3.00;;
60612;SDS011;46443;59.792;17.626;2023-08-06T08:43:23;4.53;;;2.63;;
60612;SDS011;46443;59.792;17.626;2023-08-06T08:45:50;5.25;;;2.80;;
60612;SDS011;46443;59.792;17.626;2023-08-06T08:48:16;4.03;;;2.60;;
60612;SDS011;46443;59.792;17.626;2023-08-06T08:50:44;7.50;;;3.28;;
60612;SDS011;46443;59.792;17.626;2023-08-06T08:53:11;5.88;;;2.83;;
60612;SDS011;46443;59.792;17.626;2023-08-06T08:55:37;4.25;;;2.83;;
60612;SDS011;46443;59.792;17.626;2023-08-06T08:58:04;4.75;;;2.53;;
60612;SDS011;46443;59.792;17.626;2023-08-06T09:00:30;4.50;;;2.65;;
60612;SDS011;46443;59.792;17.626;2023-08-06T09:02:56;4.20;;;2.70;;
60612;SDS011;46443;59.792;17.626;2023-08-06T09:05:23;3.95;;;2.60;;
60612;SDS011;46443;59.792;17.626;2023-08-06T09:07:50;5.55;;;2.63;;
60612;SDS011;46443;59.792;17.626;2023-08-06T09:10:18;3.90;;;2.65;;
60612;SDS011;46443;59.792;17.626;2023-08-06T09:12:46;4.38;;;2.50;;
60612;SDS011;46443;59.792;17.626;2023-08-06T09:15:12;4.13;;;2.25;;
60612;SDS011;46443;59.792;17.626;2023-08-06T09:17:39;5.53;;;2.45;;
60612;SDS011;46443;59.792;17.626;2023-08-06T09:20:08;5.05;;;2.78;;
60612;SDS011;46443;59.792;17.626;2023-08-06T09:25:00;5.72;;;2.80;;
60612;SDS011;46443;59.792;17.626;2023-08-06T09:27:28;5.30;;;2.65;;
60612;SDS011;46443;59.792;17.626;2023-08-06T09:29:54;4.75;;;2.67;;
60612;SDS011;46443;59.792;17.626;2023-08-06T09:32:20;4.40;;;2.78;;
60612;SDS011;46443;59.792;17.626;2023-08-06T09:34:46;3.60;;;2.35;;
60612;SDS011;46443;59.792;17.626;2023-08-06T09:37:13;4.40;;;2.60;;
60612;SDS011;46443;59.792;17.626;2023-08-06T09:39:39;4.47;;;2.70;;
60612;SDS011;46443;59.792;17.626;2023-08-06T09:42:06;4.50;;;2.88;;
60612;SDS011;46443;59.792;17.626;2023-08-06T09:44:33;5.60;;;2.78;;
60612;SDS011;46443;59.792;17.626;2023-08-06T09:47:00;4.63;;;2.70;;
60612;SDS011;46443;59.792;17.626;2023-08-06T09:51:56;4.32;;;2.80;;
60612;SDS011;46443;59.792;17.626;2023-08-06T09:54:24;4.18;;;2.55;;
60612;SDS011;46443;59.792;17.626;2023-08-06T09:56:52;4.30;;;3.00;;
60612;SDS011;46443;59.792;17.626;2023-08-06T09:59:18;5.05;;;3.08;;
60612;SDS011;46443;59.792;17.626;2023-08-06T10:01:45;5.22;;;3.13;;
60612;SDS011;46443;59.792;17.626;2023-08-06T10:04:11;4.57;;;2.67;;
60612;SDS011;46443;59.792;17.626;2023-08-06T10:09:06;5.03;;;2.70;;
60612;SDS011;46443;59.792;17.626;2023-08-06T10:11:34;4.50;;;2.78;;
60612;SDS011;46443;59.792;17.626;2023-08-06T10:14:24;4.30;;;2.45;;
60612;SDS011;46443;59.792;17.626;2023-08-06T10:16:48;4.10;;;2.80;;
60612;SDS011;46443;59.792;17.626;2023-08-06T10:19:15;5.90;;;2.90;;
60612;SDS011;46443;59.792;17.626;2023-08-06T10:21:42;4.00;;;2.47;;
60612;SDS011;46443;59.792;17.626;2023-08-06T10:24:28;6.03;;;2.92;;
60612;SDS011;46443;59.792;17.626;2023-08-06T10:27:10;5.88;;;3.13;;
60612;SDS011;46443;59.792;17.626;2023-08-06T10:29:37;5.15;;;2.90;;
60612;SDS011;46443;59.792;17.626;2023-08-06T10:32:03;4.55;;;2.80;;
60612;SDS011;46443;59.792;17.626;2023-08-06T10:35:05;4.13;;;2.58;;
60612;SDS011;46443;59.792;17.626;2023-08-06T10:37:37;3.75;;;2.50;;
60612;SDS011;46443;59.792;17.626;2023-08-06T10:40:03;5.80;;;3.05;;
60612;SDS011;46443;59.792;17.626;2023-08-06T10:42:32;5.55;;;2.83;;
60612;SDS011;46443;59.792;17.626;2023-08-06T10:45:14;4.40;;;2.80;;
60612;SDS011;46443;59.792;17.626;2023-08-06T10:47:41;6.93;;;3.05;;
60612;SDS011;46443;59.792;17.626;2023-08-06T10:50:07;5.38;;;2.90;;
60612;SDS011;46443;59.792;17.626;2023-08-06T10:52:34;4.32;;;2.85;;
60612;SDS011;46443;59.792;17.626;2023-08-06T10:55:00;5.07;;;2.92;;
60612;SDS011;46443;59.792;17.626;2023-08-06T10:57:26;5.93;;;2.92;;
60612;SDS011;46443;59.792;17.626;2023-08-06T10:59:52;4.60;;;2.80;;
60612;SDS011;46443;59.792;17.626;2023-08-06T11:02:18;5.78;;;2.70;;
60612;SDS011;46443;59.792;17.626;2023-08-06T11:04:44;5.50;;;3.00;;
60612;SDS011;46443;59.792;17.626;2023-08-06T11:07:10;5.65;;;2.88;;
60612;SDS011;46443;59.792;17.626;2023-08-06T11:09:37;4.38;;;3.10;;
60612;SDS011;46443;59.792;17.626;2023-08-06T11:12:06;6.07;;;3.15;;
60612;SDS011;46443;59.792;17.626;2023-08-06T11:14:34;5.72;;;3.22;;
60612;SDS011;46443;59.792;17.626;2023-08-06T11:17:01;5.03;;;2.83;;
60612;SDS011;46443;59.792;17.626;2023-08-06T11:19:27;4.75;;;3.08;;
60612;SDS011;46443;59.792;17.626;2023-08-06T11:21:54;4.60;;;3.05;;
60612;SDS011;46443;59.792;17.626;2023-08-06T11:24:20;4.53;;;2.88;;
60612;SDS011;46443;59.792;17.626;2023-08-06T11:26:46;6.05;;;3.65;;
60612;SDS011;46443;59.792;17.626;2023-08-06T11:29:14;4.53;;;3.05;;
60612;SDS011;46443;59.792;17.626;2023-08-06T11:31:40;6.40;;;3.08;;
60612;SDS011;46443;59.792;17.626;2023-08-06T11:34:06;4.72;;;3.10;;
60612;SDS011;46443;59.792;17.626;2023-08-06T11:36:34;5.72;;;3.25;;
60612;SDS011;46443;59.792;17.626;2023-08-06T11:39:02;4.88;;;2.63;;
60612;SDS011;46443;59.792;17.626;2023-08-06T11:41:31;6.07;;;3.50;;
60612;SDS011;46443;59.792;17.626;2023-08-06T11:44:00;5.03;;;2.90;;
60612;SDS011;46443;59.792;17.626;2023-08-06T11:46:26;5.10;;;3.15;;
60612;SDS011;46443;59.792;17.626;2023-08-06T11:48:56;7.30;;;3.50;;
60612;SDS011;46443;59.792;17.626;2023-08-06T11:51:23;7.22;;;3.15;;
60612;SDS011;46443;59.792;17.626;2023-08-06T11:53:51;5.38;;;2.83;;
60612;SDS011;46443;59.792;17.626;2023-08-06T11:56:17;7.18;;;3.00;;
60612;SDS011;46443;59.792;17.626;2023-08-06T11:58:43;7.20;;;3.40;;
60612;SDS011;46443;59.792;17.626;2023-08-06T12:01:09;6.45;;;3.17;;
60612;SDS011;46443;59.792;17.626;2023-08-06T12:03:41;6.90;;;3.10;;
60612;SDS011;46443;59.792;17.626;2023-08-06T12:06:07;5.13;;;3.30;;
60612;SDS011;46443;59.792;17.626;2023-08-06T12:08:33;6.93;;;3.28;;
60612;SDS011;46443;59.792;17.626;2023-08-06T12:10:59;9.68;;;3.78;;
60612;SDS011;46443;59.792;17.626;2023-08-06T12:13:25;5.45;;;3.13;;
60612;SDS011;46443;59.792;17.626;2023-08-06T12:15:51;7.65;;;3.30;;
60612;SDS011;46443;59.792;17.626;2023-08-06T12:18:18;8.65;;;3.60;;
60612;SDS011;46443;59.792;17.626;2023-08-06T12:20:44;5.85;;;3.35;;
60612;SDS011;46443;59.792;17.626;2023-08-06T12:23:11;9.15;;;3.72;;
60612;SDS011;46443;59.792;17.626;2023-08-06T12:25:40;6.28;;;3.72;;
60612;SDS011;46443;59.792;17.626;2023-08-06T12:28:06;7.45;;;3.60;;
60612;SDS011;46443;59.792;17.626;2023-08-06T12:30:33;8.00;;;3.63;;
60612;SDS011;46443;59.792;17.626;2023-08-06T12:32:59;6.32;;;3.72;;
60612;SDS011;46443;59.792;17.626;2023-08-06T12:35:25;7.60;;;3.60;;
60612;SDS011;46443;59.792;17.626;2023-08-06T12:37:51;7.13;;;3.83;;
60612;SDS011;46443;59.792;17.626;2023-08-06T12:40:19;7.68;;;3.38;;
60612;SDS011;46443;59.792;17.626;2023-08-06T12:42:46;6.68;;;3.90;;
60612;SDS011;46443;59.792;17.626;2023-08-06T12:45:12;6.18;;;3.40;;
60612;SDS011;46443;59.792;17.626;2023-08-06T12:47:39;7.03;;;3.80;;
60612;SDS011;46443;59.792;17.626;2023-08-06T12:50:05;9.43;;;4.20;;
60612;SDS011;46443;59.792;17.626;2023-08-06T12:52:31;7.13;;;3.63;;
60612;SDS011;46443;59.792;17.626;2023-08-06T12:54:57;6.93;;;4.03;;
60612;SDS011;46443;59.792;17.626;2023-08-06T12:57:23;5.87;;;4.10;;
60612;SDS011;46443;59.792;17.626;2023-08-06T12:59:49;7.07;;;4.03;;
60612;SDS011;46443;59.792;17.626;2023-08-06T13:02:15;6.80;;;3.70;;
60612;SDS011;46443;59.792;17.626;2023-08-06T13:04:41;7.57;;;4.10;;
60612;SDS011;46443;59.792;17.626;2023-08-06T13:07:08;8.60;;;4.23;;
60612;SDS011;46443;59.792;17.626;2023-08-06T13:09:34;8.10;;;3.87;;
60612;SDS011;46443;59.792;17.626;2023-08-06T13:12:00;7.07;;;4.30;;
60612;SDS011;46443;59.792;17.626;2023-08-06T13:14:30;10.33;;;4.50;;
60612;SDS011;46443;59.792;17.626;2023-08-06T13:16:56;7.53;;;4.23;;
60612;SDS011;46443;59.792;17.626;2023-08-06T13:19:22;7.60;;;4.03;;
60612;SDS011;46443;59.792;17.626;2023-08-06T13:24:17;8.93;;;4.35;;
60612;SDS011;46443;59.792;17.626;2023-08-06T13:26:44;10.33;;;4.83;;
60612;SDS011;46443;59.792;17.626;2023-08-06T13:29:10;7.67;;;4.47;;
60612;SDS011;46443;59.792;17.626;2023-08-06T13:31:36;7.77;;;4.03;;
60612;SDS011;46443;59.792;17.626;2023-08-06T13:34:02;7.50;;;4.60;;
60612;SDS011;46443;59.792;17.626;2023-08-06T13:36:29;7.93;;;4.97;;
60612;SDS011;46443;59.792;17.626;2023-08-06T13:38:56;8.67;;;4.70;;
60612;SDS011;46443;59.792;17.626;2023-08-06T13:41:22;7.73;;;4.57;;
60612;SDS011;46443;59.792;17.626;2023-08-06T13:43:48;11.47;;;5.80;;
60612;SDS011;46443;59.792;17.626;2023-08-06T13:46:15;12.30;;;6.00;;
60612;SDS011;46443;59.792;17.626;2023-08-06T13:48:43;10.50;;;6.03;;
60612;SDS011;46443;59.792;17.626;2023-08-06T13:51:09;8.57;;;6.17;;
60612;SDS011;46443;59.792;17.626;2023-08-06T13:53:36;10.93;;;6.27;;
60612;SDS011;46443;59.792;17.626;2023-08-06T13:56:02;11.47;;;5.90;;
60612;SDS011;46443;59.792;17.626;2023-08-06T13:58:28;13.00;;;6.27;;
60612;SDS011;46443;59.792;17.626;2023-08-06T14:00:54;11.03;;;5.60;;
60612;SDS011;46443;59.792;17.626;2023-08-06T14:03:21;10.43;;;5.50;;
60612;SDS011;46443;59.792;17.626;2023-08-06T14:05:47;7.30;;;5.23;;
60612;SDS011;46443;59.792;17.626;2023-08-06T14:08:14;9.43;;;5.07;;
60612;SDS011;46443;59.792;17.626;2023-08-06T14:10:40;12.63;;;4.90;;
60612;SDS011;46443;59.792;17.626;2023-08-06T14:13:06;10.03;;;4.90;;
60612;SDS011;46443;59.792;17.626;2023-08-06T14:15:32;9.47;;;4.43;;
60612;SDS011;46443;59.792;17.626;2023-08-06T14:17:58;6.87;;;4.27;;
60612;SDS011;46443;59.792;17.626;2023-08-06T14:20:24;8.77;;;4.43;;
60612;SDS011;46443;59.792;17.626;2023-08-06T14:22:50;11.20;;;5.07;;
60612;SDS011;46443;59.792;17.626;2023-08-06T14:25:16;9.70;;;5.40;;
60612;SDS011;46443;59.792;17.626;2023-08-06T14:27:42;8.17;;;4.67;;
60612;SDS011;46443;59.792;17.626;2023-08-06T14:30:08;9.67;;;4.80;;
60612;SDS011;46443;59.792;17.626;2023-08-06T14:32:35;10.67;;;5.50;;
60612;SDS011;46443;59.792;17.626;2023-08-06T14:35:01;9.20;;;5.17;;
60612;SDS011;46443;59.792;17.626;2023-08-06T14:37:27;7.50;;;4.67;;
60612;SDS011;46443;59.792;17.626;2023-08-06T14:39:53;11.37;;;4.73;;
60612;SDS011;46443;59.792;17.626;2023-08-06T14:42:19;8.07;;;5.00;;
60612;SDS011;46443;59.792;17.626;2023-08-06T14:44:45;12.03;;;5.67;;